Time;durP1;ratioP1;P1;durP2;ratioP2;P2;SDS_P1;SDS_P2;PMS_P1;PMS_P2;Temp;Humidity;BMP_temperature;BMP_pressure;BME280_temperature;BME280_humidity;BME280_pressure;Samples;Min_cycle;Max_cycle;Signal;HPM_P1;HPM_P2
2020/12/09 00:01:52;;;;;;;26.47;18.30;;;2.80;99.90;;;;;;4975489;28;20306;-47
2020/12/09 00:04:19;;;;;;;25.33;17.23;;;2.80;99.90;;;;;;4975571;28;20606;-44
2020/12/09 00:06:48;;;;;;;25.90;18.57;;;2.80;99.90;;;;;;4975211;28;20237;-48
2020/12/09 00:09:18;;;;;;;25.63;17.70;;;2.80;99.90;;;;;;4975183;28;20261;-48
2020/12/09 00:11:45;;;;;;;27.60;19.20;;;2.80;99.90;;;;;;4975031;28;20298;-48
2020/12/09 00:14:12;;;;;;;27.53;18.90;;;2.80;99.90;;;;;;4974889;28;20211;-47
2020/12/09 00:16:40;;;;;;;27.63;19.13;;;2.90;99.90;;;;;;4975009;28;20321;-48
2020/12/09 00:19:07;;;;;;;27.23;18.50;;;2.80;99.90;;;;;;4974822;28;20211;-50
2020/12/09 00:21:35;;;;;;;29.03;18.70;;;2.80;99.90;;;;;;4974843;28;20217;-46
2020/12/09 00:24:03;;;;;;;25.03;18.47;;;2.80;99.90;;;;;;4974850;28;20301;-49
2020/12/09 00:26:30;;;;;;;24.67;18.47;;;2.80;99.90;;;;;;4974823;28;20213;-46
2020/12/09 00:28:58;;;;;;;25.93;18.03;;;2.80;99.90;;;;;;4974986;28;20210;-49
2020/12/09 00:31:27;;;;;;;28.92;17.98;;;2.80;99.90;;;;;;4974782;28;20217;-45
2020/12/09 00:33:58;;;;;;;33.07;20.37;;;2.90;99.90;;;;;;4975010;28;20310;-48
2020/12/09 00:36:25;;;;;;;29.10;19.90;;;2.90;99.90;;;;;;4975611;28;20231;-44
2020/12/09 00:38:54;;;;;;;24.90;17.97;;;2.90;99.90;;;;;;4974854;28;20234;-45
2020/12/09 00:41:23;;;;;;;25.30;18.73;;;2.90;99.90;;;;;;4974628;28;20211;-48
2020/12/09 00:43:51;;;;;;;26.87;18.07;;;3.00;99.90;;;;;;4974584;28;20242;-45
2020/12/09 00:46:19;;;;;;;27.07;17.67;;;3.10;99.90;;;;;;4974360;28;20693;-45
2020/12/09 00:48:46;;;;;;;28.53;19.47;;;3.10;99.90;;;;;;4974198;28;20300;-48
2020/12/09 00:51:17;;;;;;;27.83;19.03;;;3.10;99.90;;;;;;4974261;28;20215;-45
2020/12/09 00:53:45;;;;;;;25.67;17.37;;;3.10;99.90;;;;;;4974307;28;20310;-50
2020/12/09 00:56:13;;;;;;;38.58;25.38;;;3.10;99.90;;;;;;4974191;28;20321;-52
2020/12/09 00:58:40;;;;;;;29.23;19.27;;;3.10;99.90;;;;;;4974271;28;20245;-50
2020/12/09 01:01:09;;;;;;;28.13;18.73;;;3.10;99.90;;;;;;4974072;28;20254;-49
2020/12/09 01:03:36;;;;;;;25.47;17.90;;;3.00;99.90;;;;;;4973943;28;20215;-48
2020/12/09 01:06:05;;;;;;;28.07;19.47;;;3.00;99.90;;;;;;4974329;28;20207;-45
2020/12/09 01:08:34;;;;;;;26.33;18.05;;;3.00;99.90;;;;;;4973894;28;20217;-46
2020/12/09 01:11:01;;;;;;;28.17;20.00;;;3.00;99.90;;;;;;4973752;28;20669;-46
2020/12/09 01:13:28;;;;;;;25.10;18.70;;;2.90;99.90;;;;;;4973813;28;20211;-49
2020/12/09 01:15:55;;;;;;;27.50;18.53;;;2.90;99.90;;;;;;4973757;28;20321;-49
2020/12/09 01:18:22;;;;;;;25.70;18.03;;;2.90;99.90;;;;;;4973865;28;20293;-46
2020/12/09 01:20:49;;;;;;;27.67;19.30;;;2.90;99.90;;;;;;4974026;28;20212;-46
2020/12/09 01:23:18;;;;;;;30.05;18.80;;;2.90;99.90;;;;;;5065620;23;20319;-47
2020/12/09 01:25:46;;;;;;;27.77;18.77;;;3.00;99.90;;;;;;5012491;28;20240;-45
2020/12/09 01:28:16;;;;;;;29.00;18.63;;;3.00;99.90;;;;;;5012738;28;20275;-45
2020/12/09 01:30:43;;;;;;;28.67;19.50;;;3.00;99.90;;;;;;5012759;28;20215;-45
2020/12/09 01:33:10;;;;;;;26.97;18.97;;;3.10;99.90;;;;;;5012571;28;20648;-47
2020/12/09 01:35:37;;;;;;;29.23;18.80;;;3.10;99.90;;;;;;5012850;28;20652;-45
2020/12/09 01:38:04;;;;;;;25.97;18.27;;;3.10;99.90;;;;;;5012902;28;20241;-48
2020/12/09 01:40:31;;;;;;;27.60;18.33;;;3.10;99.90;;;;;;5012663;28;20316;-47
2020/12/09 01:42:59;;;;;;;26.17;18.23;;;3.20;99.90;;;;;;5012436;28;20217;-51
2020/12/09 01:45:26;;;;;;;26.77;19.07;;;3.30;99.90;;;;;;5012338;28;20244;-50
2020/12/09 01:47:53;;;;;;;26.03;18.37;;;3.30;99.90;;;;;;5012370;28;20236;-48
2020/12/09 01:50:20;;;;;;;25.07;17.20;;;3.30;99.90;;;;;;5012380;28;20260;-47
2020/12/09 01:52:47;;;;;;;25.70;19.20;;;3.40;99.90;;;;;;5012049;28;20299;-46
2020/12/09 01:55:15;;;;;;;28.40;17.93;;;3.40;99.90;;;;;;5012000;28;20260;-47
2020/12/09 01:57:42;;;;;;;26.53;19.07;;;3.30;99.90;;;;;;5012516;28;20219;-46
2020/12/09 02:00:09;;;;;;;27.17;18.38;;;3.30;99.90;;;;;;5012319;28;20233;-46
2020/12/09 02:02:36;;;;;;;29.57;19.63;;;3.30;99.90;;;;;;5011969;28;20640;-46
2020/12/09 02:05:04;;;;;;;28.27;19.00;;;3.30;99.90;;;;;;5011466;28;20216;-49
2020/12/09 02:07:31;;;;;;;29.30;18.60;;;3.30;99.90;;;;;;5011845;28;20244;-49
2020/12/09 02:10:03;;;;;;;27.97;18.20;;;3.30;99.90;;;;;;5012042;28;20304;-47
2020/12/09 02:12:32;;;;;;;29.60;20.15;;;3.30;99.90;;;;;;5011877;28;20762;-47
2020/12/09 02:14:59;;;;;;;30.43;19.67;;;3.30;99.90;;;;;;5012054;28;20312;-48
2020/12/09 02:17:27;;;;;;;29.63;18.77;;;3.30;99.90;;;;;;5011791;28;20306;-49
2020/12/09 02:19:54;;;;;;;31.80;21.07;;;3.30;99.90;;;;;;5011853;28;20212;-48
2020/12/09 02:22:22;;;;;;;29.67;19.70;;;3.30;99.90;;;;;;5011540;28;20336;-49
2020/12/09 02:24:49;;;;;;;30.90;20.80;;;3.30;99.90;;;;;;5011748;28;20304;-47
2020/12/09 02:27:17;;;;;;;30.03;20.33;;;3.30;99.90;;;;;;5012194;28;20213;-45
2020/12/09 02:29:44;;;;;;;28.00;18.77;;;3.30;99.90;;;;;;5012044;28;20256;-48
2020/12/09 02:32:11;;;;;;;32.72;20.17;;;3.30;99.90;;;;;;5011967;28;20296;-45
2020/12/09 02:34:38;;;;;;;32.13;20.37;;;3.30;99.90;;;;;;5011981;28;20233;-45
2020/12/09 02:37:05;;;;;;;29.03;20.43;;;3.30;99.90;;;;;;5011354;28;20316;-48
2020/12/09 02:39:35;;;;;;;32.80;20.53;;;3.20;99.90;;;;;;5011658;28;20686;-51
2020/12/09 02:42:03;;;;;;;27.10;18.97;;;3.20;99.90;;;;;;5011910;28;20300;-47
2020/12/09 02:44:30;;;;;;;31.00;20.07;;;3.20;99.90;;;;;;5011808;28;20561;-45
2020/12/09 02:46:58;;;;;;;30.23;18.77;;;3.30;99.90;;;;;;5011626;28;20631;-50
2020/12/09 02:49:25;;;;;;;31.40;19.70;;;3.30;99.90;;;;;;5011390;28;20221;-47
2020/12/09 02:51:53;;;;;;;30.50;20.20;;;3.20;99.90;;;;;;5011441;28;20209;-46
2020/12/09 02:54:20;;;;;;;30.50;21.63;;;3.20;99.90;;;;;;5011775;28;20725;-50
2020/12/09 02:56:48;;;;;;;31.23;20.50;;;3.20;99.90;;;;;;5011577;28;20260;-45
2020/12/09 02:59:15;;;;;;;33.13;20.17;;;3.20;99.90;;;;;;5011708;28;20307;-44
2020/12/09 03:01:42;;;;;;;35.13;20.20;;;3.20;99.90;;;;;;5011591;28;20209;-47
2020/12/09 03:04:09;;;;;;;32.10;20.47;;;3.20;99.90;;;;;;5011398;28;20220;-46
2020/12/09 03:06:36;;;;;;;31.60;20.73;;;3.20;99.90;;;;;;5011184;28;20228;-47
2020/12/09 03:09:03;;;;;;;33.67;20.00;;;3.20;99.90;;;;;;5011672;28;20237;-49
2020/12/09 03:11:31;;;;;;;29.87;19.83;;;3.10;99.90;;;;;;5011603;28;20245;-45
2020/12/09 03:13:59;;;;;;;29.13;18.57;;;3.10;99.90;;;;;;5011526;28;20292;-47
2020/12/09 03:16:26;;;;;;;32.00;20.50;;;3.10;99.90;;;;;;5012538;28;20379;-47
2020/12/09 03:18:54;;;;;;;27.20;19.50;;;3.10;99.90;;;;;;5014796;28;20313;-45
2020/12/09 03:21:21;;;;;;;32.40;20.07;;;3.10;99.90;;;;;;5015050;28;20210;-47
2020/12/09 03:23:48;;;;;;;31.83;19.33;;;3.20;99.90;;;;;;5015033;28;20239;-48
2020/12/09 03:26:15;;;;;;;31.50;20.73;;;3.20;99.90;;;;;;5015095;28;20236;-46
2020/12/09 03:28:42;;;;;;;32.73;19.87;;;3.20;99.90;;;;;;5015125;28;20296;-45
2020/12/09 03:31:10;;;;;;;30.40;19.23;;;3.30;99.90;;;;;;5014995;28;20569;-46
2020/12/09 03:33:37;;;;;;;31.80;19.93;;;3.30;99.90;;;;;;5014624;28;20217;-46
2020/12/09 03:36:04;;;;;;;30.93;20.13;;;3.30;99.90;;;;;;5014848;28;20587;-49
2020/12/09 03:38:31;;;;;;;30.37;19.93;;;3.30;99.90;;;;;;5014755;28;20236;-50
2020/12/09 03:40:58;;;;;;;32.10;20.90;;;3.30;99.90;;;;;;5014384;28;20319;-48
2020/12/09 03:43:25;;;;;;;34.63;21.57;;;3.30;99.90;;;;;;5014424;28;20292;-46
2020/12/09 03:45:52;;;;;;;30.30;20.53;;;3.30;99.90;;;;;;5014502;28;20308;-48
2020/12/09 03:48:21;;;;;;;31.67;20.40;;;3.30;99.90;;;;;;5014199;28;20232;-47
2020/12/09 03:50:48;;;;;;;33.03;22.20;;;3.40;99.90;;;;;;5014670;28;20205;-45
2020/12/09 03:53:16;;;;;;;32.57;21.57;;;3.30;99.90;;;;;;5014352;28;20213;-47
2020/12/09 03:55:43;;;;;;;32.50;20.60;;;3.30;99.90;;;;;;5014323;28;20226;-46
2020/12/09 03:58:10;;;;;;;31.20;19.53;;;3.30;99.90;;;;;;5014314;28;20308;-46
2020/12/09 04:00:37;;;;;;;32.93;20.27;;;3.30;99.90;;;;;;5014403;28;20205;-47
2020/12/09 04:03:04;;;;;;;28.37;19.10;;;3.30;99.90;;;;;;5014731;28;20251;-45
2020/12/09 04:05:32;;;;;;;33.77;20.27;;;3.30;99.90;;;;;;5014760;28;20209;-48
2020/12/09 04:08:00;;;;;;;30.67;20.67;;;3.20;99.90;;;;;;5014242;28;20216;-45
2020/12/09 04:10:27;;;;;;;32.83;22.00;;;3.20;99.90;;;;;;5014150;28;20304;-45
2020/12/09 04:12:54;;;;;;;29.97;19.40;;;3.20;99.90;;;;;;5014098;28;20301;-46
2020/12/09 04:15:21;;;;;;;31.57;20.40;;;3.20;99.90;;;;;;5014193;28;20210;-48
2020/12/09 04:17:48;;;;;;;33.43;20.33;;;3.20;99.90;;;;;;5014208;28;20295;-46
2020/12/09 04:20:16;;;;;;;31.87;20.60;;;3.20;99.90;;;;;;5014175;28;20235;-49
2020/12/09 04:22:43;;;;;;;31.07;21.30;;;3.30;99.90;;;;;;5013791;28;20263;-50
2020/12/09 04:25:10;;;;;;;32.27;21.00;;;3.30;99.90;;;;;;5013811;28;20276;-45
2020/12/09 04:27:37;;;;;;;32.30;20.33;;;3.30;99.90;;;;;;5013255;28;20213;-48
2020/12/09 04:30:05;;;;;;;31.90;21.57;;;3.30;99.90;;;;;;5013967;28;20217;-45
2020/12/09 04:32:32;;;;;;;27.13;19.17;;;3.30;99.90;;;;;;5013821;28;20581;-48
2020/12/09 04:34:59;;;;;;;29.80;19.70;;;3.30;99.90;;;;;;5013779;28;20296;-46
2020/12/09 04:37:27;;;;;;;28.33;19.43;;;3.30;99.90;;;;;;5013471;28;20269;-46
2020/12/09 04:39:56;;;;;;;28.87;19.17;;;3.30;99.90;;;;;;5013603;28;20216;-50
2020/12/09 04:42:24;;;;;;;26.63;18.40;;;3.30;99.90;;;;;;5013379;28;20271;-47
2020/12/09 04:44:52;;;;;;;29.30;21.63;;;3.30;99.90;;;;;;5013458;28;20296;-45
2020/12/09 04:47:24;;;;;;;28.07;18.40;;;3.30;99.90;;;;;;5013488;28;20244;-46
2020/12/09 04:50:03;;;;;;;32.17;21.27;;;3.30;99.90;;;;;;5013421;28;20209;-44
2020/12/09 04:52:54;;;;;;;33.03;20.95;;;3.30;99.90;;;;;;5013298;28;20552;-45
2020/12/09 04:55:26;;;;;;;32.00;21.10;;;3.20;99.90;;;;;;5013413;28;20217;-48
2020/12/09 04:58:13;;;;;;;32.90;22.03;;;3.20;99.90;;;;;;5013338;28;20292;-49
2020/12/09 05:00:43;;;;;;;33.43;21.80;;;3.20;99.90;;;;;;5013189;28;20221;-47
2020/12/09 05:03:18;;;;;;;31.60;20.10;;;3.20;99.90;;;;;;5012932;28;20349;-47
2020/12/09 05:05:46;;;;;;;29.83;20.77;;;3.20;99.90;;;;;;5013066;28;20288;-47
2020/12/09 05:08:22;;;;;;;30.13;20.50;;;3.20;99.90;;;;;;5013080;28;20209;-45
2020/12/09 05:10:51;;;;;;;29.10;20.00;;;3.20;99.90;;;;;;5012780;28;20237;-49
2020/12/09 05:13:26;;;;;;;28.80;19.83;;;3.20;99.90;;;;;;5012596;28;20240;-47
2020/12/09 05:15:57;;;;;;;28.95;20.05;;;3.20;99.90;;;;;;5012729;28;20765;-44
2020/12/09 05:18:40;;;;;;;31.93;21.03;;;3.30;99.90;;;;;;5013006;28;20333;-45
2020/12/09 05:21:12;;;;;;;31.03;20.83;;;3.30;99.90;;;;;;5012938;28;20297;-44
2020/12/09 05:23:49;;;;;;;30.63;20.50;;;3.30;99.90;;;;;;5012361;28;20331;-45
2020/12/09 05:26:23;;;;;;;29.90;19.57;;;3.40;99.90;;;;;;5012660;28;20239;-45
2020/12/09 05:29:05;;;;;;;29.67;20.73;;;3.40;99.90;;;;;;5012852;28;20534;-50
2020/12/09 05:31:33;;;;;;;32.43;21.20;;;3.40;99.90;;;;;;5012637;28;20671;-48
2020/12/09 05:34:01;;;;;;;32.87;21.20;;;3.50;99.90;;;;;;5012569;28;20300;-48
2020/12/09 05:36:28;;;;;;;29.20;20.40;;;3.50;99.90;;;;;;5012294;28;20243;-49
2020/12/09 05:39:06;;;;;;;32.07;22.20;;;3.60;99.90;;;;;;5012670;28;20220;-47
2020/12/09 05:41:34;;;;;;;32.03;22.03;;;3.50;99.90;;;;;;5012007;28;20241;-49
2020/12/09 05:44:02;;;;;;;30.37;20.97;;;3.50;99.90;;;;;;5012629;28;20209;-45
2020/12/09 05:46:30;;;;;;;30.00;20.57;;;3.60;99.90;;;;;;5012413;28;20297;-49
2020/12/09 05:48:57;;;;;;;33.13;22.43;;;3.60;99.90;;;;;;5012114;28;20209;-48
2020/12/09 05:51:25;;;;;;;28.40;20.37;;;3.60;99.90;;;;;;5012514;28;20223;-50
2020/12/09 05:53:52;;;;;;;32.37;21.00;;;3.70;99.90;;;;;;5012213;28;20692;-49
2020/12/09 05:56:21;;;;;;;30.53;20.87;;;3.60;99.90;;;;;;5012151;28;20627;-51
2020/12/09 05:58:50;;;;;;;32.40;22.17;;;3.60;99.90;;;;;;5012368;28;20212;-50
2020/12/09 06:01:18;;;;;;;34.53;22.97;;;3.60;99.90;;;;;;5011959;28;20209;-48
2020/12/09 06:03:46;;;;;;;31.63;20.40;;;3.50;99.90;;;;;;5011882;28;20747;-45
2020/12/09 06:06:21;;;;;;;31.10;21.47;;;3.50;99.90;;;;;;5012464;28;20319;-49
2020/12/09 06:08:50;;;;;;;32.07;22.97;;;3.50;99.90;;;;;;5012369;28;20221;-45
2020/12/09 06:11:19;;;;;;;31.73;21.25;;;3.50;99.90;;;;;;5011901;28;20754;-46
2020/12/09 06:13:46;;;;;;;32.70;20.70;;;3.50;99.90;;;;;;5012145;28;20205;-45
2020/12/09 06:16:17;;;;;;;33.07;21.10;;;3.50;99.90;;;;;;5012218;28;20229;-51
2020/12/09 06:18:46;;;;;;;28.37;20.53;;;3.50;99.90;;;;;;5012182;28;20209;-47
2020/12/09 06:21:14;;;;;;;31.00;21.70;;;3.50;99.90;;;;;;5012132;28;20758;-47
2020/12/09 06:23:42;;;;;;;32.77;21.27;;;3.50;99.90;;;;;;5011590;28;20237;-49
2020/12/09 06:26:09;;;;;;;32.33;22.10;;;3.50;99.90;;;;;;5012299;28;20346;-45
2020/12/09 06:28:38;;;;;;;32.17;22.87;;;3.50;99.90;;;;;;5012123;28;20219;-42
2020/12/09 06:31:11;;;;;;;30.90;21.27;;;3.60;99.90;;;;;;5012009;28;20216;-43
2020/12/09 06:33:40;;;;;;;31.23;21.37;;;3.60;99.90;;;;;;5012155;28;20665;-42
2020/12/09 06:36:18;;;;;;;30.20;20.23;;;3.50;99.90;;;;;;5012060;28;20229;-44
2020/12/09 06:39:12;;;;;;;29.73;20.17;;;3.50;99.90;;;;;;5012077;28;20211;-44
2020/12/09 06:41:41;;;;;;;32.97;21.43;;;3.50;99.90;;;;;;5012272;28;20217;-45
2020/12/09 06:44:10;;;;;;;33.10;22.50;;;3.50;99.90;;;;;;5011865;28;20210;-48
2020/12/09 06:46:39;;;;;;;34.33;22.40;;;3.50;99.90;;;;;;5012826;28;20213;-49
2020/12/09 06:49:40;;;;;;;33.23;23.10;;;3.50;99.90;;;;;;5011876;28;20244;-45
2020/12/09 06:52:36;;;;;;;34.67;22.17;;;3.50;99.90;;;;;;5014458;28;20256;-47
2020/12/09 06:55:06;;;;;;;31.20;20.37;;;3.50;99.90;;;;;;5015747;28;20291;-48
2020/12/09 06:57:37;;;;;;;29.87;20.47;;;3.50;99.90;;;;;;5015695;28;20243;-50
2020/12/09 07:00:22;;;;;;;31.17;21.45;;;3.50;99.90;;;;;;5016006;28;20233;-45
2020/12/09 07:02:54;;;;;;;34.07;22.20;;;3.50;99.90;;;;;;5015858;28;20209;-43
2020/12/09 07:05:27;;;;;;;35.07;22.33;;;3.50;99.90;;;;;;5015779;28;20290;-42
2020/12/09 07:08:00;;;;;;;29.80;20.67;;;3.50;99.90;;;;;;5015485;28;20730;-42
2020/12/09 07:10:29;;;;;;;31.17;21.67;;;3.50;99.90;;;;;;5015794;28;20252;-45
2020/12/09 07:13:06;;;;;;;32.17;20.90;;;3.40;99.90;;;;;;5015717;28;20308;-40
2020/12/09 07:15:34;;;;;;;30.03;22.00;;;3.40;99.90;;;;;;5015414;28;20762;-41
2020/12/09 07:18:01;;;;;;;35.57;21.23;;;3.30;99.90;;;;;;5015266;28;20233;-43
2020/12/09 07:20:29;;;;;;;30.17;20.90;;;3.30;99.90;;;;;;5014612;28;20217;-44
2020/12/09 07:22:56;;;;;;;29.67;20.50;;;3.20;99.90;;;;;;5015340;28;20664;-42
2020/12/09 07:25:23;;;;;;;30.47;21.57;;;3.20;99.90;;;;;;5015422;28;20292;-42
2020/12/09 07:27:51;;;;;;;28.53;19.13;;;3.30;99.90;;;;;;5015013;28;20301;-42
2020/12/09 07:30:20;;;;;;;31.23;20.33;;;3.30;99.90;;;;;;5015108;28;20209;-45
2020/12/09 07:32:49;;;;;;;31.17;21.70;;;3.30;99.90;;;;;;5015180;28;20209;-44
2020/12/09 07:35:18;;;;;;;31.50;21.42;;;3.30;99.90;;;;;;5014799;28;20214;-42
2020/12/09 07:37:48;;;;;;;29.87;20.70;;;3.30;99.90;;;;;;5014646;28;20316;-44
2020/12/09 07:40:22;;;;;;;28.87;20.53;;;3.30;99.90;;;;;;5014884;28;20229;-45
2020/12/09 07:43:03;;;;;;;31.90;20.43;;;3.30;99.90;;;;;;5014965;28;20215;-44
2020/12/09 07:45:31;;;;;;;30.83;20.40;;;3.20;99.90;;;;;;5014712;28;20241;-46
2020/12/09 07:47:59;;;;;;;33.83;22.97;;;3.20;99.90;;;;;;5014958;28;20209;-46
2020/12/09 07:50:26;;;;;;;31.77;20.33;;;3.20;99.90;;;;;;5014489;28;20245;-42
2020/12/09 07:52:54;;;;;;;31.13;22.00;;;3.20;99.90;;;;;;5014765;28;20245;-48
2020/12/09 07:55:22;;;;;;;57.13;36.83;;;3.20;99.90;;;;;;5014742;28;20213;-45
2020/12/09 07:57:49;;;;;;;34.37;22.57;;;3.20;99.90;;;;;;5014400;28;20667;-44
2020/12/09 08:00:17;;;;;;;35.93;21.70;;;3.20;99.90;;;;;;5014255;28;20213;-51
2020/12/09 08:02:46;;;;;;;32.37;21.77;;;3.20;99.90;;;;;;5013332;28;20206;-48
2020/12/09 08:05:21;;;;;;;32.80;21.73;;;3.30;99.90;;;;;;5014241;28;20209;-48
2020/12/09 08:07:58;;;;;;;30.70;21.10;;;3.30;99.90;;;;;;5014465;28;20324;-46
2020/12/09 08:10:28;;;;;;;33.97;21.57;;;3.40;99.90;;;;;;5014141;28;20213;-45
2020/12/09 08:13:03;;;;;;;29.93;20.03;;;3.40;99.90;;;;;;5014344;28;20209;-47
2020/12/09 08:15:31;;;;;;;32.53;22.23;;;3.40;99.90;;;;;;5014451;28;20209;-45
2020/12/09 08:17:58;;;;;;;30.70;21.17;;;3.40;99.90;;;;;;5014211;28;20321;-48
2020/12/09 08:20:25;;;;;;;32.27;23.33;;;3.50;99.90;;;;;;5014132;28;20296;-48
2020/12/09 08:22:58;;;;;;;34.03;21.93;;;3.50;99.90;;;;;;5013978;28;20272;-45
2020/12/09 08:25:28;;;;;;;33.07;21.83;;;3.50;99.90;;;;;;5013955;28;20676;-44
2020/12/09 08:27:56;;;;;;;32.00;21.40;;;3.50;99.90;;;;;;5014130;28;20650;-44
2020/12/09 08:30:26;;;;;;;33.83;22.00;;;3.60;99.90;;;;;;5014057;28;20239;-43
2020/12/09 08:33:02;;;;;;;34.07;21.10;;;3.60;99.90;;;;;;5014000;28;20249;-46
2020/12/09 08:35:31;;;;;;;32.27;21.20;;;3.50;99.90;;;;;;5013957;28;20205;-46
2020/12/09 08:38:02;;;;;;;31.50;21.23;;;3.40;99.90;;;;;;5014316;28;20240;-43
2020/12/09 08:40:29;;;;;;;34.33;22.03;;;3.40;99.90;;;;;;5013818;28;20209;-46
2020/12/09 08:42:59;;;;;;;33.90;21.27;;;3.40;99.90;;;;;;5013937;28;20220;-47
2020/12/09 08:45:26;;;;;;;36.33;22.47;;;3.40;99.90;;;;;;5013466;28;20209;-47
2020/12/09 08:47:54;;;;;;;32.67;21.23;;;3.30;99.90;;;;;;5013460;28;20243;-48
2020/12/09 08:50:21;;;;;;;36.13;22.07;;;3.30;99.90;;;;;;5013592;28;20292;-48
2020/12/09 08:52:48;;;;;;;33.17;20.65;;;3.30;99.90;;;;;;5013439;28;20288;-45
2020/12/09 08:55:16;;;;;;;30.20;21.03;;;3.20;99.90;;;;;;5013361;28;20770;-48
2020/12/09 08:57:43;;;;;;;32.50;20.90;;;3.20;99.90;;;;;;5013341;28;20287;-44
2020/12/09 09:00:10;;;;;;;30.80;21.13;;;3.20;99.90;;;;;;5013592;28;20217;-46
2020/12/09 09:02:39;;;;;;;31.43;21.37;;;3.20;99.90;;;;;;5013358;28;20206;-46
2020/12/09 09:05:06;;;;;;;35.17;20.40;;;3.30;99.90;;;;;;5013444;28;20216;-45
2020/12/09 09:07:33;;;;;;;31.23;20.50;;;3.30;99.90;;;;;;5013425;28;20212;-44
2020/12/09 09:10:00;;;;;;;32.33;20.03;;;3.30;99.90;;;;;;5013354;28;20245;-44
2020/12/09 09:12:28;;;;;;;29.60;20.80;;;3.30;99.90;;;;;;5013297;28;20209;-49
2020/12/09 09:14:55;;;;;;;36.80;22.23;;;3.30;99.90;;;;;;5013166;28;20217;-45
2020/12/09 09:17:22;;;;;;;37.53;26.00;;;3.30;99.90;;;;;;5013366;28;20229;-44
2020/12/09 09:20:01;;;;;;;35.30;21.60;;;3.40;99.90;;;;;;5013384;28;20229;-46
2020/12/09 09:22:28;;;;;;;32.50;23.03;;;3.40;99.90;;;;;;5013352;28;20269;-47
2020/12/09 09:24:55;;;;;;;38.23;27.83;;;3.40;99.90;;;;;;5013456;28;20223;-45
2020/12/09 09:27:22;;;;;;;34.83;26.07;;;3.50;99.90;;;;;;5013029;28;20627;-50
2020/12/09 09:29:51;;;;;;;32.00;22.60;;;3.50;99.90;;;;;;5012775;28;20292;-44
2020/12/09 09:32:17;;;;;;;32.50;23.83;;;3.60;99.90;;;;;;5013008;28;20668;-47
2020/12/09 09:34:45;;;;;;;30.55;21.33;;;3.60;99.90;;;;;;5013094;28;20562;-47
2020/12/09 09:37:12;;;;;;;33.07;22.07;;;3.60;99.90;;;;;;5012761;28;20222;-45
2020/12/09 09:39:39;;;;;;;35.50;23.27;;;3.60;99.90;;;;;;5012937;28;20245;-46
2020/12/09 09:42:07;;;;;;;30.97;21.47;;;3.60;99.90;;;;;;5012889;28;20220;-43
2020/12/09 09:44:34;;;;;;;30.87;20.93;;;3.60;99.90;;;;;;5012365;28;20209;-46
2020/12/09 09:47:02;;;;;;;26.63;19.20;;;3.60;99.90;;;;;;5012980;28;20639;-44
2020/12/09 09:49:29;;;;;;;29.10;19.10;;;3.60;99.90;;;;;;5012776;28;20377;-44
2020/12/09 09:51:56;;;;;;;28.43;18.80;;;3.60;99.90;;;;;;5012562;28;20667;-44
2020/12/09 09:54:23;;;;;;;31.13;20.40;;;3.70;99.90;;;;;;5012637;28;20248;-47
2020/12/09 09:56:50;;;;;;;30.00;20.57;;;3.70;99.90;;;;;;5012359;28;20225;-46
2020/12/09 09:59:17;;;;;;;30.60;20.20;;;3.80;99.90;;;;;;5012463;28;20616;-47
2020/12/09 10:01:44;;;;;;;26.57;18.27;;;3.70;99.90;;;;;;5012744;28;20283;-48
2020/12/09 10:04:12;;;;;;;29.23;20.20;;;3.80;99.90;;;;;;5012630;28;20300;-46
2020/12/09 10:06:39;;;;;;;27.07;19.57;;;3.80;99.90;;;;;;5012561;28;20305;-48
2020/12/09 10:09:08;;;;;;;25.70;18.83;;;3.80;99.90;;;;;;5012594;28;20300;-50
2020/12/09 10:11:38;;;;;;;26.10;18.03;;;3.80;99.90;;;;;;5012378;28;20264;-49
2020/12/09 10:14:05;;;;;;;23.57;17.27;;;3.90;99.90;;;;;;5012455;28;20288;-47
2020/12/09 10:16:33;;;;;;;25.43;17.97;;;3.90;99.90;;;;;;5012358;28;20233;-48
2020/12/09 10:19:00;;;;;;;26.97;19.27;;;4.00;99.90;;;;;;5012138;28;20738;-48
2020/12/09 10:21:31;;;;;;;25.30;17.40;;;4.10;99.90;;;;;;5012331;28;20210;-48
2020/12/09 10:23:59;;;;;;;21.63;15.50;;;4.10;99.90;;;;;;5012057;28;20366;-45
2020/12/09 10:26:30;;;;;;;26.03;18.13;;;4.10;99.90;;;;;;5011607;28;20235;-50
2020/12/09 10:29:00;;;;;;;26.23;18.20;;;4.10;99.90;;;;;;5012445;28;20308;-50
2020/12/09 10:31:34;;;;;;;22.50;16.63;;;4.10;99.90;;;;;;5012235;28;20219;-46
2020/12/09 10:34:01;;;;;;;24.93;18.03;;;4.10;99.90;;;;;;5011982;28;20213;-49
2020/12/09 10:36:29;;;;;;;27.93;16.43;;;4.00;99.90;;;;;;5011955;28;20300;-50
2020/12/09 10:38:56;;;;;;;23.60;16.97;;;4.00;99.90;;;;;;5011982;28;20668;-51
2020/12/09 10:41:23;;;;;;;22.00;16.57;;;4.10;99.90;;;;;;5012095;28;20642;-50
2020/12/09 10:43:51;;;;;;;22.60;16.40;;;4.00;99.90;;;;;;5011944;28;20304;-49
2020/12/09 10:46:19;;;;;;;22.27;17.03;;;4.10;99.90;;;;;;5012019;28;20260;-49
2020/12/09 10:48:46;;;;;;;21.17;15.77;;;4.10;99.90;;;;;;5011684;28;20256;-48
2020/12/09 10:51:13;;;;;;;21.70;15.63;;;4.10;99.90;;;;;;5011866;28;20291;-45
2020/12/09 10:53:41;;;;;;;24.27;15.97;;;4.10;99.90;;;;;;5011872;28;20606;-46
2020/12/09 10:56:08;;;;;;;19.93;15.57;;;4.20;99.90;;;;;;5011942;28;20296;-50
2020/12/09 10:58:35;;;;;;;20.40;14.70;;;4.20;99.90;;;;;;5011802;28;20244;-46
2020/12/09 11:01:02;;;;;;;20.57;14.13;;;4.10;99.90;;;;;;5011708;28;20245;-47
2020/12/09 11:03:29;;;;;;;18.23;15.33;;;4.10;99.90;;;;;;5011740;28;20229;-46
2020/12/09 11:05:56;;;;;;;19.40;14.70;;;4.10;99.90;;;;;;5011989;28;20301;-49
2020/12/09 11:08:23;;;;;;;22.67;17.37;;;4.10;99.90;;;;;;5013124;28;20237;-49
2020/12/09 11:10:52;;;;;;;21.87;15.97;;;4.10;99.90;;;;;;5011842;28;20244;-46
2020/12/09 11:13:19;;;;;;;19.37;15.30;;;4.20;99.90;;;;;;5011836;28;20447;-45
2020/12/09 11:15:46;;;;;;;18.90;14.20;;;4.20;99.90;;;;;;5011734;28;20215;-44
2020/12/09 11:18:12;;;;;;;17.30;13.20;;;4.20;99.90;;;;;;5011532;28;20320;-44
2020/12/09 11:20:39;;;;;;;21.10;16.30;;;4.20;99.90;;;;;;5011801;28;20220;-46
2020/12/09 11:23:10;;;;;;;15.83;13.13;;;4.10;99.90;;;;;;5011599;28;20316;-47
2020/12/09 11:25:37;;;;;;;19.00;14.50;;;4.20;99.90;;;;;;5011730;28;20213;-47
2020/12/09 11:28:05;;;;;;;17.63;13.67;;;4.20;99.90;;;;;;5012065;28;20304;-47
2020/12/09 11:30:33;;;;;;;14.90;12.27;;;4.20;99.90;;;;;;5011509;28;20649;-45
2020/12/09 11:33:00;;;;;;;17.50;14.10;;;4.20;99.90;;;;;;5011679;28;20234;-48
2020/12/09 11:35:27;;;;;;;17.57;14.00;;;4.20;99.90;;;;;;5011639;28;20245;-48
2020/12/09 11:37:55;;;;;;;17.10;12.70;;;4.20;99.90;;;;;;5013311;28;20302;-46
2020/12/09 11:40:25;;;;;;;16.30;13.00;;;4.10;99.90;;;;;;5015213;28;20267;-44
2020/12/09 11:42:52;;;;;;;18.30;13.57;;;4.10;99.90;;;;;;5015181;28;20444;-45
2020/12/09 11:45:20;;;;;;;14.97;12.60;;;4.10;99.90;;;;;;5014866;28;20292;-46
2020/12/09 11:47:47;;;;;;;14.02;12.45;;;4.10;99.90;;;;;;5015454;28;20320;-44
2020/12/09 11:50:14;;;;;;;16.73;11.97;;;4.10;99.90;;;;;;5015167;28;20240;-46
2020/12/09 11:52:41;;;;;;;14.90;12.57;;;4.00;99.90;;;;;;5015027;28;20349;-46
2020/12/09 11:55:11;;;;;;;13.83;12.07;;;4.00;99.90;;;;;;5014830;28;20619;-48
2020/12/09 11:57:38;;;;;;;15.20;11.43;;;4.00;99.90;;;;;;5014796;28;20318;-45
2020/12/09 12:00:05;;;;;;;16.67;12.17;;;4.00;99.90;;;;;;5014924;28;20312;-47
2020/12/09 12:02:32;;;;;;;15.73;12.80;;;4.00;99.90;;;;;;5014840;28;20656;-49
2020/12/09 12:05:01;;;;;;;14.30;11.90;;;4.00;99.90;;;;;;5014468;28;20296;-41
2020/12/09 12:07:28;;;;;;;13.80;11.50;;;4.00;99.90;;;;;;5014461;28;20728;-45
2020/12/09 12:09:55;;;;;;;13.17;11.33;;;4.00;99.90;;;;;;5014323;28;20320;-44
2020/12/09 12:12:22;;;;;;;17.90;13.37;;;4.00;99.90;;;;;;5014347;28;20229;-45
2020/12/09 12:14:49;;;;;;;16.43;13.17;;;4.00;99.90;;;;;;5014382;28;20209;-44
2020/12/09 12:17:16;;;;;;;14.13;11.75;;;4.00;99.90;;;;;;5014454;28;20224;-46
2020/12/09 12:19:44;;;;;;;13.43;11.80;;;4.00;99.90;;;;;;5014256;28;20206;-44
2020/12/09 12:22:11;;;;;;;13.63;11.27;;;4.00;99.90;;;;;;5014126;28;20328;-43
2020/12/09 12:24:38;;;;;;;11.80;10.50;;;4.00;99.90;;;;;;5014221;28;20312;-45
2020/12/09 12:27:05;;;;;;;14.50;10.80;;;3.90;99.90;;;;;;5014648;28;20209;-45
2020/12/09 12:29:32;;;;;;;16.30;10.67;;;4.00;99.90;;;;;;5014094;28;20707;-45
2020/12/09 12:31:59;;;;;;;12.57;11.03;;;4.00;99.90;;;;;;5014247;28;20233;-44
2020/12/09 12:34:26;;;;;;;14.67;11.87;;;4.00;99.90;;;;;;5014146;28;20245;-43
2020/12/09 12:36:57;;;;;;;14.13;11.23;;;4.00;99.90;;;;;;5016032;28;20302;-44
2020/12/09 12:39:24;;;;;;;15.43;11.50;;;4.00;99.90;;;;;;5013936;28;20308;-43
2020/12/09 12:41:51;;;;;;;14.73;11.53;;;3.90;99.90;;;;;;5013916;28;20209;-43
2020/12/09 12:44:18;;;;;;;12.73;11.23;;;3.90;99.90;;;;;;5014102;28;20205;-42